sensor_id;sensor_type;location;lat;lon;timestamp;P1;durP1;ratioP1;P2;durP2;ratioP2
22363;SDS011;11349;53.412;-1.328;2024-03-06T00:01:37;30.73;;;17.80;;
22363;SDS011;11349;53.412;-1.328;2024-03-06T00:04:03;29.42;;;18.70;;
22363;SDS011;11349;53.412;-1.328;2024-03-06T00:06:29;29.27;;;17.38;;
22363;SDS011;11349;53.412;-1.328;2024-03-06T00:08:55;28.98;;;18.35;;
22363;SDS011;11349;53.412;-1.328;2024-03-06T00:11:21;32.20;;;20.67;;
22363;SDS011;11349;53.412;-1.328;2024-03-06T00:13:47;30.80;;;19.10;;
22363;SDS011;11349;53.412;-1.328;2024-03-06T00:16:13;27.27;;;18.48;;
22363;SDS011;11349;53.412;-1.328;2024-03-06T00:18:39;28.50;;;18.10;;
22363;SDS011;11349;53.412;-1.328;2024-03-06T00:21:05;25.05;;;17.38;;
22363;SDS011;11349;53.412;-1.328;2024-03-06T00:23:31;25.67;;;17.08;;
22363;SDS011;11349;53.412;-1.328;2024-03-06T00:25:57;25.55;;;17.17;;
22363;SDS011;11349;53.412;-1.328;2024-03-06T00:28:23;25.88;;;15.90;;
22363;SDS011;11349;53.412;-1.328;2024-03-06T00:30:49;23.13;;;15.02;;
22363;SDS011;11349;53.412;-1.328;2024-03-06T00:33:15;27.02;;;17.52;;
22363;SDS011;11349;53.412;-1.328;2024-03-06T00:35:41;30.83;;;19.60;;
22363;SDS011;11349;53.412;-1.328;2024-03-06T00:38:06;32.97;;;18.70;;
22363;SDS011;11349;53.412;-1.328;2024-03-06T00:40:32;31.33;;;19.58;;
22363;SDS011;11349;53.412;-1.328;2024-03-06T00:42:58;34.75;;;21.95;;
22363;SDS011;11349;53.412;-1.328;2024-03-06T00:45:24;36.78;;;21.95;;
22363;SDS011;11349;53.412;-1.328;2024-03-06T00:47:49;35.80;;;23.00;;
22363;SDS011;11349;53.412;-1.328;2024-03-06T00:50:15;36.20;;;23.17;;
22363;SDS011;11349;53.412;-1.328;2024-03-06T00:52:42;31.90;;;22.23;;
22363;SDS011;11349;53.412;-1.328;2024-03-06T00:55:08;31.00;;;21.30;;
22363;SDS011;11349;53.412;-1.328;2024-03-06T00:57:35;35.88;;;23.15;;
22363;SDS011;11349;53.412;-1.328;2024-03-06T01:00:01;35.83;;;23.95;;
22363;SDS011;11349;53.412;-1.328;2024-03-06T01:02:35;33.95;;;23.73;;
22363;SDS011;11349;53.412;-1.328;2024-03-06T01:05:01;32.72;;;23.10;;
22363;SDS011;11349;53.412;-1.328;2024-03-06T01:07:28;34.45;;;23.67;;
22363;SDS011;11349;53.412;-1.328;2024-03-06T01:09:55;36.17;;;22.63;;
22363;SDS011;11349;53.412;-1.328;2024-03-06T01:12:22;32.75;;;22.70;;
22363;SDS011;11349;53.412;-1.328;2024-03-06T01:14:48;34.85;;;25.23;;
22363;SDS011;11349;53.412;-1.328;2024-03-06T01:17:14;32.58;;;23.88;;
22363;SDS011;11349;53.412;-1.328;2024-03-06T01:19:40;41.70;;;26.80;;
22363;SDS011;11349;53.412;-1.328;2024-03-06T01:22:08;38.58;;;27.02;;
22363;SDS011;11349;53.412;-1.328;2024-03-06T01:24:34;37.92;;;26.73;;
22363;SDS011;11349;53.412;-1.328;2024-03-06T01:27:00;37.58;;;26.85;;
22363;SDS011;11349;53.412;-1.328;2024-03-06T01:29:27;38.17;;;24.83;;
22363;SDS011;11349;53.412;-1.328;2024-03-06T01:31:54;35.33;;;25.35;;
22363;SDS011;11349;53.412;-1.328;2024-03-06T01:34:19;36.45;;;24.23;;
22363;SDS011;11349;53.412;-1.328;2024-03-06T01:36:45;37.15;;;23.58;;
22363;SDS011;11349;53.412;-1.328;2024-03-06T01:39:11;36.22;;;22.92;;
22363;SDS011;11349;53.412;-1.328;2024-03-06T01:41:36;39.55;;;26.65;;
22363;SDS011;11349;53.412;-1.328;2024-03-06T01:44:02;45.25;;;26.80;;
22363;SDS011;11349;53.412;-1.328;2024-03-06T01:46:29;34.17;;;23.33;;
22363;SDS011;11349;53.412;-1.328;2024-03-06T01:48:54;32.28;;;21.45;;
22363;SDS011;11349;53.412;-1.328;2024-03-06T01:51:21;30.95;;;19.35;;
22363;SDS011;11349;53.412;-1.328;2024-03-06T01:53:46;26.17;;;18.67;;
22363;SDS011;11349;53.412;-1.328;2024-03-06T01:56:13;27.98;;;17.23;;
22363;SDS011;11349;53.412;-1.328;2024-03-06T01:58:42;27.88;;;17.65;;
22363;SDS011;11349;53.412;-1.328;2024-03-06T02:01:11;27.65;;;17.05;;
22363;SDS011;11349;53.412;-1.328;2024-03-06T02:03:37;29.88;;;18.77;;
22363;SDS011;11349;53.412;-1.328;2024-03-06T02:06:03;33.65;;;19.58;;
22363;SDS011;11349;53.412;-1.328;2024-03-06T02:08:30;33.90;;;22.92;;
22363;SDS011;11349;53.412;-1.328;2024-03-06T02:10:56;37.95;;;23.77;;
22363;SDS011;11349;53.412;-1.328;2024-03-06T02:13:21;40.10;;;25.25;;
22363;SDS011;11349;53.412;-1.328;2024-03-06T02:15:47;37.45;;;24.83;;
22363;SDS011;11349;53.412;-1.328;2024-03-06T02:18:14;36.03;;;23.92;;
22363;SDS011;11349;53.412;-1.328;2024-03-06T02:20:39;38.00;;;23.73;;
22363;SDS011;11349;53.412;-1.328;2024-03-06T02:23:06;33.03;;;22.88;;
22363;SDS011;11349;53.412;-1.328;2024-03-06T02:25:32;35.65;;;23.65;;
22363;SDS011;11349;53.412;-1.328;2024-03-06T02:27:58;34.40;;;24.55;;
22363;SDS011;11349;53.412;-1.328;2024-03-06T02:30:24;36.13;;;23.85;;
22363;SDS011;11349;53.412;-1.328;2024-03-06T02:32:50;34.67;;;24.20;;
22363;SDS011;11349;53.412;-1.328;2024-03-06T02:35:16;36.33;;;24.88;;
22363;SDS011;11349;53.412;-1.328;2024-03-06T02:37:43;38.55;;;25.98;;
22363;SDS011;11349;53.412;-1.328;2024-03-06T02:40:12;46.33;;;30.13;;
22363;SDS011;11349;53.412;-1.328;2024-03-06T02:42:38;44.95;;;28.88;;
22363;SDS011;11349;53.412;-1.328;2024-03-06T02:45:04;43.95;;;28.73;;
22363;SDS011;11349;53.412;-1.328;2024-03-06T02:47:32;41.90;;;28.38;;
22363;SDS011;11349;53.412;-1.328;2024-03-06T02:49:57;42.38;;;28.80;;
22363;SDS011;11349;53.412;-1.328;2024-03-06T02:52:23;43.50;;;28.08;;
22363;SDS011;11349;53.412;-1.328;2024-03-06T02:54:49;36.97;;;24.33;;
22363;SDS011;11349;53.412;-1.328;2024-03-06T02:57:14;40.95;;;23.15;;
22363;SDS011;11349;53.412;-1.328;2024-03-06T02:59:40;31.02;;;22.10;;
22363;SDS011;11349;53.412;-1.328;2024-03-06T03:02:06;30.40;;;21.85;;
22363;SDS011;11349;53.412;-1.328;2024-03-06T03:04:32;33.70;;;21.02;;
22363;SDS011;11349;53.412;-1.328;2024-03-06T03:06:57;33.25;;;21.73;;
22363;SDS011;11349;53.412;-1.328;2024-03-06T03:09:23;39.47;;;24.15;;
22363;SDS011;11349;53.412;-1.328;2024-03-06T03:11:49;40.47;;;27.23;;
22363;SDS011;11349;53.412;-1.328;2024-03-06T03:14:15;36.38;;;25.80;;
22363;SDS011;11349;53.412;-1.328;2024-03-06T03:16:40;41.50;;;27.00;;
22363;SDS011;11349;53.412;-1.328;2024-03-06T03:19:07;38.28;;;27.13;;
22363;SDS011;11349;53.412;-1.328;2024-03-06T03:21:33;40.63;;;26.58;;
22363;SDS011;11349;53.412;-1.328;2024-03-06T03:23:59;39.13;;;25.13;;
22363;SDS011;11349;53.412;-1.328;2024-03-06T03:26:25;38.65;;;26.05;;
22363;SDS011;11349;53.412;-1.328;2024-03-06T03:28:51;42.13;;;26.75;;
22363;SDS011;11349;53.412;-1.328;2024-03-06T03:31:16;37.90;;;24.80;;
22363;SDS011;11349;53.412;-1.328;2024-03-06T03:33:42;36.25;;;25.23;;
22363;SDS011;11349;53.412;-1.328;2024-03-06T03:36:08;42.17;;;26.30;;
22363;SDS011;11349;53.412;-1.328;2024-03-06T03:38:37;44.88;;;26.25;;
22363;SDS011;11349;53.412;-1.328;2024-03-06T03:41:09;39.80;;;26.10;;
22363;SDS011;11349;53.412;-1.328;2024-03-06T03:43:41;36.28;;;23.60;;
22363;SDS011;11349;53.412;-1.328;2024-03-06T03:46:06;37.00;;;24.02;;
22363;SDS011;11349;53.412;-1.328;2024-03-06T03:48:34;37.80;;;22.73;;
22363;SDS011;11349;53.412;-1.328;2024-03-06T03:51:02;37.10;;;24.00;;
22363;SDS011;11349;53.412;-1.328;2024-03-06T03:53:32;40.33;;;25.60;;
22363;SDS011;11349;53.412;-1.328;2024-03-06T03:55:58;33.85;;;22.85;;
22363;SDS011;11349;53.412;-1.328;2024-03-06T03:58:28;28.75;;;19.73;;
22363;SDS011;11349;53.412;-1.328;2024-03-06T04:00:54;34.78;;;21.52;;
22363;SDS011;11349;53.412;-1.328;2024-03-06T04:03:20;28.52;;;18.67;;
22363;SDS011;11349;53.412;-1.328;2024-03-06T04:05:49;29.55;;;17.70;;
22363;SDS011;11349;53.412;-1.328;2024-03-06T04:08:15;28.27;;;18.52;;
22363;SDS011;11349;53.412;-1.328;2024-03-06T04:10:41;48.95;;;19.85;;
22363;SDS011;11349;53.412;-1.328;2024-03-06T04:13:10;30.00;;;18.05;;
22363;SDS011;11349;53.412;-1.328;2024-03-06T04:15:37;26.55;;;18.23;;
22363;SDS011;11349;53.412;-1.328;2024-03-06T04:18:03;31.05;;;18.42;;
22363;SDS011;11349;53.412;-1.328;2024-03-06T04:20:28;27.20;;;17.88;;
22363;SDS011;11349;53.412;-1.328;2024-03-06T04:22:54;30.38;;;18.35;;
22363;SDS011;11349;53.412;-1.328;2024-03-06T04:25:20;27.60;;;18.38;;
22363;SDS011;11349;53.412;-1.328;2024-03-06T04:27:45;30.13;;;19.33;;
22363;SDS011;11349;53.412;-1.328;2024-03-06T04:30:11;28.38;;;18.33;;
22363;SDS011;11349;53.412;-1.328;2024-03-06T04:32:37;32.70;;;19.00;;
22363;SDS011;11349;53.412;-1.328;2024-03-06T04:35:03;27.80;;;18.63;;
22363;SDS011;11349;53.412;-1.328;2024-03-06T04:37:29;30.05;;;19.90;;
22363;SDS011;11349;53.412;-1.328;2024-03-06T04:39:55;33.38;;;20.08;;
22363;SDS011;11349;53.412;-1.328;2024-03-06T04:42:21;32.40;;;20.13;;
22363;SDS011;11349;53.412;-1.328;2024-03-06T04:44:47;30.63;;;18.55;;
22363;SDS011;11349;53.412;-1.328;2024-03-06T04:47:13;32.45;;;18.65;;
22363;SDS011;11349;53.412;-1.328;2024-03-06T04:49:38;29.38;;;18.90;;
22363;SDS011;11349;53.412;-1.328;2024-03-06T04:52:04;31.25;;;19.80;;
22363;SDS011;11349;53.412;-1.328;2024-03-06T04:54:30;31.20;;;19.63;;
22363;SDS011;11349;53.412;-1.328;2024-03-06T04:56:55;26.45;;;17.45;;
22363;SDS011;11349;53.412;-1.328;2024-03-06T04:59:21;31.17;;;19.92;;
22363;SDS011;11349;53.412;-1.328;2024-03-06T05:01:47;30.50;;;19.52;;
22363;SDS011;11349;53.412;-1.328;2024-03-06T05:04:13;30.85;;;18.98;;
22363;SDS011;11349;53.412;-1.328;2024-03-06T05:06:38;30.88;;;20.95;;
22363;SDS011;11349;53.412;-1.328;2024-03-06T05:09:04;29.88;;;20.27;;
22363;SDS011;11349;53.412;-1.328;2024-03-06T05:11:30;33.53;;;20.48;;
22363;SDS011;11349;53.412;-1.328;2024-03-06T05:14:00;29.60;;;20.63;;
22363;SDS011;11349;53.412;-1.328;2024-03-06T05:16:25;31.45;;;19.65;;
22363;SDS011;11349;53.412;-1.328;2024-03-06T05:18:51;28.13;;;18.98;;
22363;SDS011;11349;53.412;-1.328;2024-03-06T05:21:18;29.42;;;19.23;;
22363;SDS011;11349;53.412;-1.328;2024-03-06T05:23:44;34.13;;;20.50;;
22363;SDS011;11349;53.412;-1.328;2024-03-06T05:26:10;35.08;;;21.15;;
22363;SDS011;11349;53.412;-1.328;2024-03-06T05:28:36;30.67;;;20.70;;
22363;SDS011;11349;53.412;-1.328;2024-03-06T05:31:13;31.95;;;19.30;;
22363;SDS011;11349;53.412;-1.328;2024-03-06T05:33:46;31.95;;;19.98;;
22363;SDS011;11349;53.412;-1.328;2024-03-06T05:36:13;29.77;;;19.15;;
22363;SDS011;11349;53.412;-1.328;2024-03-06T05:38:39;28.50;;;18.83;;
22363;SDS011;11349;53.412;-1.328;2024-03-06T05:41:05;29.35;;;20.50;;
22363;SDS011;11349;53.412;-1.328;2024-03-06T05:43:31;30.83;;;21.67;;
22363;SDS011;11349;53.412;-1.328;2024-03-06T05:45:56;32.30;;;21.30;;
22363;SDS011;11349;53.412;-1.328;2024-03-06T05:48:22;34.05;;;22.85;;
22363;SDS011;11349;53.412;-1.328;2024-03-06T05:50:49;44.05;;;26.90;;
22363;SDS011;11349;53.412;-1.328;2024-03-06T05:53:14;46.58;;;29.98;;
22363;SDS011;11349;53.412;-1.328;2024-03-06T05:55:40;51.50;;;31.73;;
22363;SDS011;11349;53.412;-1.328;2024-03-06T05:58:06;50.47;;;29.52;;
22363;SDS011;11349;53.412;-1.328;2024-03-06T06:00:31;57.70;;;33.22;;
22363;SDS011;11349;53.412;-1.328;2024-03-06T06:02:58;55.72;;;30.98;;
22363;SDS011;11349;53.412;-1.328;2024-03-06T06:05:24;52.90;;;32.85;;
22363;SDS011;11349;53.412;-1.328;2024-03-06T06:07:50;54.75;;;31.15;;
22363;SDS011;11349;53.412;-1.328;2024-03-06T06:10:16;47.67;;;31.08;;
22363;SDS011;11349;53.412;-1.328;2024-03-06T06:12:42;54.88;;;30.73;;
22363;SDS011;11349;53.412;-1.328;2024-03-06T06:15:08;56.20;;;31.85;;
22363;SDS011;11349;53.412;-1.328;2024-03-06T06:17:34;51.00;;;31.17;;
22363;SDS011;11349;53.412;-1.328;2024-03-06T06:20:00;52.28;;;31.23;;
22363;SDS011;11349;53.412;-1.328;2024-03-06T06:22:29;55.67;;;31.20;;
22363;SDS011;11349;53.412;-1.328;2024-03-06T06:24:54;56.55;;;30.98;;
22363;SDS011;11349;53.412;-1.328;2024-03-06T06:27:21;48.15;;;29.90;;
22363;SDS011;11349;53.412;-1.328;2024-03-06T06:29:47;51.75;;;31.25;;
22363;SDS011;11349;53.412;-1.328;2024-03-06T06:32:13;51.30;;;31.08;;
22363;SDS011;11349;53.412;-1.328;2024-03-06T06:34:38;50.47;;;31.65;;
22363;SDS011;11349;53.412;-1.328;2024-03-06T06:37:04;49.78;;;30.48;;
22363;SDS011;11349;53.412;-1.328;2024-03-06T06:39:30;58.20;;;33.47;;
22363;SDS011;11349;53.412;-1.328;2024-03-06T06:41:55;52.65;;;30.75;;
22363;SDS011;11349;53.412;-1.328;2024-03-06T06:44:21;55.20;;;31.83;;
22363;SDS011;11349;53.412;-1.328;2024-03-06T06:46:46;52.25;;;30.98;;
22363;SDS011;11349;53.412;-1.328;2024-03-06T06:49:12;56.08;;;30.85;;
22363;SDS011;11349;53.412;-1.328;2024-03-06T06:51:38;50.75;;;30.77;;
22363;SDS011;11349;53.412;-1.328;2024-03-06T06:54:03;49.85;;;31.20;;
22363;SDS011;11349;53.412;-1.328;2024-03-06T06:56:29;56.30;;;32.17;;
22363;SDS011;11349;53.412;-1.328;2024-03-06T06:58:56;52.88;;;31.77;;
22363;SDS011;11349;53.412;-1.328;2024-03-06T07:01:21;53.70;;;30.58;;
22363;SDS011;11349;53.412;-1.328;2024-03-06T07:03:47;59.38;;;32.90;;
22363;SDS011;11349;53.412;-1.328;2024-03-06T07:06:13;53.90;;;31.77;;
22363;SDS011;11349;53.412;-1.328;2024-03-06T07:08:38;51.30;;;30.02;;
22363;SDS011;11349;53.412;-1.328;2024-03-06T07:11:04;42.28;;;26.85;;
22363;SDS011;11349;53.412;-1.328;2024-03-06T07:13:30;50.33;;;30.15;;
22363;SDS011;11349;53.412;-1.328;2024-03-06T07:15:55;56.30;;;31.25;;
22363;SDS011;11349;53.412;-1.328;2024-03-06T07:18:21;49.88;;;31.05;;
22363;SDS011;11349;53.412;-1.328;2024-03-06T07:20:47;49.53;;;30.35;;
22363;SDS011;11349;53.412;-1.328;2024-03-06T07:23:13;57.65;;;33.55;;
22363;SDS011;11349;53.412;-1.328;2024-03-06T07:25:38;55.13;;;34.83;;
22363;SDS011;11349;53.412;-1.328;2024-03-06T07:28:04;66.35;;;35.60;;
22363;SDS011;11349;53.412;-1.328;2024-03-06T07:30:30;64.82;;;36.85;;
22363;SDS011;11349;53.412;-1.328;2024-03-06T07:32:56;72.70;;;35.50;;
22363;SDS011;11349;53.412;-1.328;2024-03-06T07:35:22;85.40;;;42.00;;
22363;SDS011;11349;53.412;-1.328;2024-03-06T07:37:48;84.50;;;41.25;;
22363;SDS011;11349;53.412;-1.328;2024-03-06T07:40:14;85.28;;;43.92;;
22363;SDS011;11349;53.412;-1.328;2024-03-06T07:42:39;94.68;;;45.40;;
22363;SDS011;11349;53.412;-1.328;2024-03-06T07:45:06;102.68;;;49.58;;
22363;SDS011;11349;53.412;-1.328;2024-03-06T07:47:34;100.53;;;51.05;;
22363;SDS011;11349;53.412;-1.328;2024-03-06T07:50:00;105.57;;;51.53;;
22363;SDS011;11349;53.412;-1.328;2024-03-06T07:52:25;106.15;;;52.63;;
22363;SDS011;11349;53.412;-1.328;2024-03-06T07:54:51;106.82;;;49.78;;
22363;SDS011;11349;53.412;-1.328;2024-03-06T07:57:17;108.80;;;48.95;;
22363;SDS011;11349;53.412;-1.328;2024-03-06T07:59:43;77.47;;;39.10;;
22363;SDS011;11349;53.412;-1.328;2024-03-06T08:02:09;92.15;;;46.33;;
22363;SDS011;11349;53.412;-1.328;2024-03-06T08:04:34;87.07;;;44.17;;
22363;SDS011;11349;53.412;-1.328;2024-03-06T08:07:01;101.28;;;46.97;;
22363;SDS011;11349;53.412;-1.328;2024-03-06T08:09:26;103.65;;;45.67;;
22363;SDS011;11349;53.412;-1.328;2024-03-06T08:11:53;90.63;;;43.35;;
22363;SDS011;11349;53.412;-1.328;2024-03-06T08:14:20;92.90;;;42.00;;
22363;SDS011;11349;53.412;-1.328;2024-03-06T08:16:45;86.90;;;40.00;;
22363;SDS011;11349;53.412;-1.328;2024-03-06T08:19:11;86.95;;;41.70;;
22363;SDS011;11349;53.412;-1.328;2024-03-06T08:21:37;78.57;;;37.10;;
22363;SDS011;11349;53.412;-1.328;2024-03-06T08:24:03;81.63;;;37.63;;
22363;SDS011;11349;53.412;-1.328;2024-03-06T08:26:29;79.63;;;37.70;;
22363;SDS011;11349;53.412;-1.328;2024-03-06T08:28:54;77.78;;;38.10;;
22363;SDS011;11349;53.412;-1.328;2024-03-06T08:31:20;74.65;;;37.15;;
22363;SDS011;11349;53.412;-1.328;2024-03-06T08:33:46;85.47;;;37.30;;
22363;SDS011;11349;53.412;-1.328;2024-03-06T08:36:12;78.53;;;38.75;;
22363;SDS011;11349;53.412;-1.328;2024-03-06T08:38:39;75.93;;;38.35;;
22363;SDS011;11349;53.412;-1.328;2024-03-06T08:41:06;76.28;;;39.95;;
22363;SDS011;11349;53.412;-1.328;2024-03-06T08:43:31;78.57;;;40.38;;
22363;SDS011;11349;53.412;-1.328;2024-03-06T08:45:57;72.78;;;39.22;;
22363;SDS011;11349;53.412;-1.328;2024-03-06T08:48:23;76.10;;;40.08;;
22363;SDS011;11349;53.412;-1.328;2024-03-06T08:50:52;79.72;;;43.13;;
22363;SDS011;11349;53.412;-1.328;2024-03-06T08:53:20;76.32;;;40.58;;
22363;SDS011;11349;53.412;-1.328;2024-03-06T08:55:46;77.22;;;38.60;;
22363;SDS011;11349;53.412;-1.328;2024-03-06T08:58:12;73.63;;;38.63;;
22363;SDS011;11349;53.412;-1.328;2024-03-06T09:00:39;73.72;;;38.13;;
22363;SDS011;11349;53.412;-1.328;2024-03-06T09:03:05;87.95;;;38.05;;
22363;SDS011;11349;53.412;-1.328;2024-03-06T09:05:30;72.53;;;37.58;;
22363;SDS011;11349;53.412;-1.328;2024-03-06T09:07:56;70.03;;;38.28;;
22363;SDS011;11349;53.412;-1.328;2024-03-06T09:10:22;70.38;;;36.08;;
22363;SDS011;11349;53.412;-1.328;2024-03-06T09:12:48;80.05;;;37.50;;
22363;SDS011;11349;53.412;-1.328;2024-03-06T09:15:14;80.68;;;38.75;;
22363;SDS011;11349;53.412;-1.328;2024-03-06T09:17:41;85.95;;;39.13;;
22363;SDS011;11349;53.412;-1.328;2024-03-06T09:20:07;85.25;;;40.90;;
22363;SDS011;11349;53.412;-1.328;2024-03-06T09:22:39;79.70;;;39.97;;
22363;SDS011;11349;53.412;-1.328;2024-03-06T09:25:06;82.28;;;38.70;;
22363;SDS011;11349;53.412;-1.328;2024-03-06T09:27:32;77.82;;;38.67;;
22363;SDS011;11349;53.412;-1.328;2024-03-06T09:29:58;76.68;;;40.90;;
22363;SDS011;11349;53.412;-1.328;2024-03-06T09:32:24;81.63;;;39.05;;
22363;SDS011;11349;53.412;-1.328;2024-03-06T09:34:51;82.85;;;42.55;;
22363;SDS011;11349;53.412;-1.328;2024-03-06T09:37:17;81.60;;;40.28;;
22363;SDS011;11349;53.412;-1.328;2024-03-06T09:39:44;78.38;;;39.10;;
22363;SDS011;11349;53.412;-1.328;2024-03-06T09:42:12;79.30;;;40.20;;
22363;SDS011;11349;53.412;-1.328;2024-03-06T09:44:39;86.75;;;41.58;;
22363;SDS011;11349;53.412;-1.328;2024-03-06T09:47:04;85.32;;;41.28;;
22363;SDS011;11349;53.412;-1.328;2024-03-06T09:49:32;87.57;;;38.72;;
22363;SDS011;11349;53.412;-1.328;2024-03-06T09:51:59;78.57;;;39.78;;
22363;SDS011;11349;53.412;-1.328;2024-03-06T09:54:26;84.05;;;39.90;;
22363;SDS011;11349;53.412;-1.328;2024-03-06T09:56:53;68.40;;;36.17;;
22363;SDS011;11349;53.412;-1.328;2024-03-06T09:59:20;69.25;;;34.67;;
22363;SDS011;11349;53.412;-1.328;2024-03-06T10:01:50;78.07;;;39.67;;
22363;SDS011;11349;53.412;-1.328;2024-03-06T10:04:20;79.82;;;37.70;;
22363;SDS011;11349;53.412;-1.328;2024-03-06T10:06:47;79.15;;;38.90;;
22363;SDS011;11349;53.412;-1.328;2024-03-06T10:09:16;74.72;;;37.00;;
22363;SDS011;11349;53.412;-1.328;2024-03-06T10:11:42;59.90;;;31.23;;
22363;SDS011;11349;53.412;-1.328;2024-03-06T10:14:08;65.05;;;32.20;;
22363;SDS011;11349;53.412;-1.328;2024-03-06T10:16:35;63.78;;;34.22;;
22363;SDS011;11349;53.412;-1.328;2024-03-06T10:19:16;75.35;;;34.00;;
22363;SDS011;11349;53.412;-1.328;2024-03-06T10:21:43;64.00;;;33.72;;
22363;SDS011;11349;53.412;-1.328;2024-03-06T10:24:16;63.78;;;33.10;;
22363;SDS011;11349;53.412;-1.328;2024-03-06T10:26:45;65.07;;;33.88;;
22363;SDS011;11349;53.412;-1.328;2024-03-06T10:29:15;66.32;;;33.45;;
22363;SDS011;11349;53.412;-1.328;2024-03-06T10:31:51;57.47;;;32.03;;
22363;SDS011;11349;53.412;-1.328;2024-03-06T10:34:24;57.65;;;31.67;;
22363;SDS011;11349;53.412;-1.328;2024-03-06T10:36:54;56.83;;;32.53;;
22363;SDS011;11349;53.412;-1.328;2024-03-06T10:39:24;60.72;;;31.65;;
22363;SDS011;11349;53.412;-1.328;2024-03-06T10:41:53;68.70;;;34.58;;
22363;SDS011;11349;53.412;-1.328;2024-03-06T10:44:29;58.00;;;33.22;;
22363;SDS011;11349;53.412;-1.328;2024-03-06T10:46:56;48.53;;;27.83;;
22363;SDS011;11349;53.412;-1.328;2024-03-06T10:49:25;43.88;;;25.63;;
22363;SDS011;11349;53.412;-1.328;2024-03-06T10:51:53;48.35;;;27.55;;
22363;SDS011;11349;53.412;-1.328;2024-03-06T10:54:23;44.10;;;24.67;;
22363;SDS011;11349;53.412;-1.328;2024-03-06T10:56:52;44.80;;;24.30;;
22363;SDS011;11349;53.412;-1.328;2024-03-06T10:59:18;46.05;;;26.08;;
22363;SDS011;11349;53.412;-1.328;2024-03-06T11:01:46;43.95;;;25.17;;
22363;SDS011;11349;53.412;-1.328;2024-03-06T11:04:12;44.25;;;23.77;;
22363;SDS011;11349;53.412;-1.328;2024-03-06T11:06:40;39.25;;;23.33;;
22363;SDS011;11349;53.412;-1.328;2024-03-06T11:09:06;42.85;;;25.27;;
22363;SDS011;11349;53.412;-1.328;2024-03-06T11:11:46;38.92;;;25.05;;
22363;SDS011;11349;53.412;-1.328;2024-03-06T11:14:22;47.13;;;24.98;;
22363;SDS011;11349;53.412;-1.328;2024-03-06T11:17:08;38.70;;;23.90;;
22363;SDS011;11349;53.412;-1.328;2024-03-06T11:23:11;39.60;;;23.00;;
22363;SDS011;11349;53.412;-1.328;2024-03-06T11:28:11;40.72;;;24.50;;
22363;SDS011;11349;53.412;-1.328;2024-03-06T11:33:34;38.72;;;25.17;;
22363;SDS011;11349;53.412;-1.328;2024-03-06T11:36:22;40.63;;;25.00;;
22363;SDS011;11349;53.412;-1.328;2024-03-06T11:39:05;35.53;;;22.90;;
22363;SDS011;11349;53.412;-1.328;2024-03-06T11:44:02;33.45;;;21.55;;
22363;SDS011;11349;53.412;-1.328;2024-03-06T11:49:19;27.05;;;19.58;;
22363;SDS011;11349;53.412;-1.328;2024-03-06T11:51:50;33.00;;;21.58;;
22363;SDS011;11349;53.412;-1.328;2024-03-06T11:54:16;31.90;;;20.42;;
22363;SDS011;11349;53.412;-1.328;2024-03-06T11:56:49;29.00;;;20.15;;
22363;SDS011;11349;53.412;-1.328;2024-03-06T11:59:20;33.03;;;21.90;;
22363;SDS011;11349;53.412;-1.328;2024-03-06T12:01:48;31.95;;;21.67;;
22363;SDS011;11349;53.412;-1.328;2024-03-06T12:04:13;35.42;;;20.52;;
22363;SDS011;11349;53.412;-1.328;2024-03-06T12:06:39;31.27;;;21.20;;
22363;SDS011;11349;53.412;-1.328;2024-03-06T12:09:05;32.25;;;20.58;;
22363;SDS011;11349;53.412;-1.328;2024-03-06T12:11:36;27.70;;;18.60;;
22363;SDS011;11349;53.412;-1.328;2024-03-06T12:14:02;26.55;;;18.05;;
22363;SDS011;11349;53.412;-1.328;2024-03-06T12:16:28;29.55;;;19.95;;
22363;SDS011;11349;53.412;-1.328;2024-03-06T12:18:57;28.30;;;17.50;;
22363;SDS011;11349;53.412;-1.328;2024-03-06T12:21:33;29.70;;;19.63;;
22363;SDS011;11349;53.412;-1.328;2024-03-06T12:24:06;28.23;;;18.60;;
22363;SDS011;11349;53.412;-1.328;2024-03-06T12:26:33;26.70;;;18.15;;
22363;SDS011;11349;53.412;-1.328;2024-03-06T12:29:08;30.02;;;19.25;;
22363;SDS011;11349;53.412;-1.328;2024-03-06T12:31:36;31.77;;;19.33;;
22363;SDS011;11349;53.412;-1.328;2024-03-06T12:34:04;28.00;;;17.90;;
22363;SDS011;11349;53.412;-1.328;2024-03-06T12:36:31;28.90;;;19.35;;
22363;SDS011;11349;53.412;-1.328;2024-03-06T12:39:04;28.20;;;16.65;;
22363;SDS011;11349;53.412;-1.328;2024-03-06T12:41:38;24.75;;;15.60;;
22363;SDS011;11349;53.412;-1.328;2024-03-06T12:44:07;21.63;;;14.55;;
22363;SDS011;11349;53.412;-1.328;2024-03-06T12:46:32;25.17;;;15.10;;
22363;SDS011;11349;53.412;-1.328;2024-03-06T12:48:58;25.27;;;16.33;;
22363;SDS011;11349;53.412;-1.328;2024-03-06T12:51:24;27.92;;;16.67;;
22363;SDS011;11349;53.412;-1.328;2024-03-06T12:53:50;26.48;;;15.77;;
22363;SDS011;11349;53.412;-1.328;2024-03-06T12:56:16;28.45;;;17.13;;
22363;SDS011;11349;53.412;-1.328;2024-03-06T12:58:45;27.45;;;16.88;;
22363;SDS011;11349;53.412;-1.328;2024-03-06T13:01:10;27.17;;;17.15;;
22363;SDS011;11349;53.412;-1.328;2024-03-06T13:03:36;33.38;;;19.67;;
22363;SDS011;11349;53.412;-1.328;2024-03-06T13:06:03;32.22;;;19.05;;
22363;SDS011;11349;53.412;-1.328;2024-03-06T13:08:29;33.33;;;20.50;;
22363;SDS011;11349;53.412;-1.328;2024-03-06T13:10:55;29.10;;;19.73;;
22363;SDS011;11349;53.412;-1.328;2024-03-06T13:13:22;28.40;;;19.00;;
22363;SDS011;11349;53.412;-1.328;2024-03-06T13:15:51;33.80;;;20.33;;
22363;SDS011;11349;53.412;-1.328;2024-03-06T13:18:17;29.52;;;19.27;;
22363;SDS011;11349;53.412;-1.328;2024-03-06T13:20:45;30.42;;;18.50;;
22363;SDS011;11349;53.412;-1.328;2024-03-06T13:23:12;31.02;;;19.95;;
22363;SDS011;11349;53.412;-1.328;2024-03-06T13:25:38;39.95;;;21.15;;
22363;SDS011;11349;53.412;-1.328;2024-03-06T13:28:04;28.40;;;19.67;;
22363;SDS011;11349;53.412;-1.328;2024-03-06T13:30:30;32.50;;;19.90;;
22363;SDS011;11349;53.412;-1.328;2024-03-06T13:32:56;26.00;;;17.92;;
22363;SDS011;11349;53.412;-1.328;2024-03-06T13:35:22;27.77;;;18.15;;
22363;SDS011;11349;53.412;-1.328;2024-03-06T13:37:48;27.38;;;17.80;;
22363;SDS011;11349;53.412;-1.328;2024-03-06T13:40:16;24.67;;;16.88;;
22363;SDS011;11349;53.412;-1.328;2024-03-06T13:42:43;27.13;;;17.90;;
22363;SDS011;11349;53.412;-1.328;2024-03-06T13:45:09;24.50;;;16.25;;
22363;SDS011;11349;53.412;-1.328;2024-03-06T13:47:39;23.02;;;15.07;;
22363;SDS011;11349;53.412;-1.328;2024-03-06T13:50:12;25.67;;;16.92;;
22363;SDS011;11349;53.412;-1.328;2024-03-06T13:52:40;24.23;;;14.98;;
22363;SDS011;11349;53.412;-1.328;2024-03-06T13:55:06;27.80;;;16.45;;
22363;SDS011;11349;53.412;-1.328;2024-03-06T13:57:33;24.85;;;15.93;;
22363;SDS011;11349;53.412;-1.328;2024-03-06T14:00:06;26.08;;;15.70;;
22363;SDS011;11349;53.412;-1.328;2024-03-06T14:02:42;27.85;;;17.10;;
22363;SDS011;11349;53.412;-1.328;2024-03-06T14:05:10;21.50;;;14.65;;
22363;SDS011;11349;53.412;-1.328;2024-03-06T14:07:38;24.52;;;14.82;;
22363;SDS011;11349;53.412;-1.328;2024-03-06T14:10:04;30.25;;;17.42;;
22363;SDS011;11349;53.412;-1.328;2024-03-06T14:12:30;25.40;;;16.08;;
22363;SDS011;11349;53.412;-1.328;2024-03-06T14:14:56;30.17;;;17.50;;
22363;SDS011;11349;53.412;-1.328;2024-03-06T14:17:22;26.63;;;16.75;;
22363;SDS011;11349;53.412;-1.328;2024-03-06T14:19:47;31.52;;;18.70;;
22363;SDS011;11349;53.412;-1.328;2024-03-06T14:22:13;30.05;;;18.10;;